Earlysville, VA (22936)

1:53 PM EST on February 07, 2016 (GMT -0500)
Hollymead | | Change Station
CLOSE
Current Station
Personal Weather Station
Location: Charlottesville, VA
Elevation: 482 ft
Nearby Weather Stations

Elev 482 ft 38.12 °N, 78.45 °W | Updated 1 minute ago

Clear
Clear
45.3 °F
Feels Like 45 °F
N
1.0
Wind Variable Wind from ENE
Gusts 7.0 mph

Today
High -- | Low -- °F
--% Chance of Precip.
Yesterday
High -- | Low -- °F
Precip. -- in
Pressure 30.08 in
Visibility 10.0 miles
Clouds Clear
Windchill 45 °F
Dew Point 27 °F
Humidity 48%
Rainfall 0.00 in
Snow Depth Not available.
7:13 AM 5:43 PM
Waning Crescent, 1% visible
METAR KCHO 071753Z 04004KT 10SM CLR 07/M05 A3007 RMK AO2 SLP185 T00671050 10067 21028 56033
Pressure 30.08 in
Visibility 10.0 miles
Clouds Clear
Windchill 45 °F
Dew Point 27 °F
Humidity 48%
Rainfall 0.00 in
Snow Depth Not available.
7:13 AM 5:43 PM
Waning Crescent, 1% visible
METAR KCHO 071753Z 04004KT 10SM CLR 07/M05 A3007 RMK AO2 SLP185 T00671050 10067 21028 56033

10-Day Weather Forecast

Almanac

Astronomy

Feb. 07, 2016 Rise Set
Actual Time
Civil Twilight
Nautical Twilight
Astronomical Twilight
Moon
Length of Visible Light
Length of Day
Tomorrow will be .
, % of the Moon is Illuminated

Today's Extremes

State Highs State Lows

Community

WunderPhotos

Upload Photos

1,891,280 photos uploaded!

WunderBlog® & News

Nearby

Air Quality

  Air Quality AQ Index Pollutant
Not available.

Snow Depth

Station Depth Elevation

Earthquake Activity

City Distance Mag. Time & Date
Minimum magnitude displayed is 2.5.

Coastal Water Temperatures

Place Temperature

Stations

Nearby Weather Stations

Station Location Temp. Windchill Dew Point Humidity Wind Precip. Elev Updated Type
                   

Watches & Warnings

There are currently no watches in effect.